createdAt,value
2017-09-01T00:00:48.832Z,97.70
2017-09-01T00:03:16.508Z,97.60
2017-09-01T00:05:44.060Z,97.70
2017-09-01T00:08:11.521Z,98.00
2017-09-01T00:10:39.353Z,98.00
2017-09-01T00:13:06.813Z,98.30
2017-09-01T00:15:34.263Z,98.50
2017-09-01T00:18:01.904Z,98.60
2017-09-01T00:20:29.364Z,98.80
2017-09-01T00:22:56.863Z,98.70
2017-09-01T00:25:24.436Z,98.60
2017-09-01T00:27:51.947Z,99.00
2017-09-01T00:30:19.420Z,98.60
2017-09-01T00:32:46.940Z,98.50
2017-09-01T00:35:14.480Z,98.60
2017-09-01T00:37:42.125Z,98.70
2017-09-01T00:40:09.663Z,98.70
2017-09-01T00:42:37.129Z,98.90
2017-09-01T00:45:04.652Z,98.60
2017-09-01T00:47:32.111Z,98.60
2017-09-01T00:49:59.599Z,98.40
2017-09-01T00:52:27.074Z,98.60
2017-09-01T00:54:54.544Z,98.60
2017-09-01T00:57:22.003Z,98.60
2017-09-01T00:59:49.475Z,98.50
2017-09-01T01:02:17.130Z,98.60
2017-09-01T01:04:44.690Z,98.90
2017-09-01T01:07:12.920Z,98.70
2017-09-01T01:09:40.492Z,98.70
2017-09-01T01:12:08.044Z,98.80
2017-09-01T01:14:35.591Z,99.00
2017-09-01T01:17:03.071Z,98.70
2017-09-01T01:19:30.663Z,98.70
2017-09-01T01:21:58.221Z,99.10
2017-09-01T01:24:25.687Z,99.50
2017-09-01T01:26:53.348Z,99.20
2017-09-01T01:29:20.840Z,99.40
2017-09-01T01:31:48.385Z,99.30
2017-09-01T01:34:15.875Z,99.20
2017-09-01T01:36:43.368Z,99.50
2017-09-01T01:39:11.644Z,99.50
2017-09-01T01:41:39.175Z,99.50
2017-09-01T01:44:06.723Z,99.40
2017-09-01T01:46:34.266Z,99.40
2017-09-01T01:49:01.904Z,99.30
2017-09-01T01:51:29.460Z,99.40
2017-09-01T01:53:56.997Z,99.60
2017-09-01T01:56:24.747Z,99.60
2017-09-01T01:58:52.215Z,99.80
2017-09-01T02:01:19.680Z,99.90
2017-09-01T02:03:47.238Z,99.90
2017-09-01T02:06:14.816Z,99.90
2017-09-01T02:08:42.281Z,99.80
2017-09-01T02:11:10.268Z,99.70
2017-09-01T02:13:37.756Z,99.60
2017-09-01T02:16:05.295Z,99.50
2017-09-01T02:18:32.835Z,99.70
2017-09-01T02:21:01.072Z,99.80
2017-09-01T02:23:28.644Z,99.70
2017-09-01T02:25:56.277Z,99.50
2017-09-01T02:28:23.836Z,99.70
2017-09-01T02:30:51.305Z,99.90
2017-09-01T02:33:19.851Z,99.90
2017-09-01T02:35:47.379Z,99.80
2017-09-01T02:38:15.620Z,99.90
2017-09-01T02:40:44.256Z,99.90
2017-09-01T02:43:11.737Z,99.90
2017-09-01T02:45:39.195Z,99.90
2017-09-01T02:48:06.727Z,99.90
2017-09-01T02:50:34.205Z,99.90
2017-09-01T02:53:01.662Z,99.90
2017-09-01T02:55:29.151Z,99.90
2017-09-01T02:57:56.708Z,99.90
2017-09-01T03:00:24.251Z,99.90
2017-09-01T03:02:51.808Z,99.90
2017-09-01T03:05:19.341Z,99.90
2017-09-01T03:07:46.880Z,99.90
2017-09-01T03:10:15.170Z,99.90
2017-09-01T03:12:42.712Z,99.90
2017-09-01T03:15:10.232Z,99.90
2017-09-01T03:17:37.780Z,99.90
2017-09-01T03:20:05.316Z,99.90
2017-09-01T03:22:32.790Z,99.90
2017-09-01T03:25:00.416Z,99.90
2017-09-01T03:27:27.944Z,99.90
2017-09-01T03:29:56.172Z,99.90
2017-09-01T03:32:23.654Z,99.90
2017-09-01T03:34:51.196Z,99.90
2017-09-01T03:37:18.935Z,99.90
2017-09-01T03:39:46.399Z,99.90
2017-09-01T03:42:13.869Z,99.90
2017-09-01T03:44:41.576Z,99.90
2017-09-01T03:47:09.040Z,99.90
2017-09-01T03:49:36.559Z,99.90
2017-09-01T03:52:04.306Z,99.90
2017-09-01T03:54:32.568Z,99.90
2017-09-01T03:57:00.108Z,99.90
2017-09-01T03:59:27.651Z,99.90
2017-09-01T04:01:55.197Z,99.90
2017-09-01T04:04:22.731Z,99.90
2017-09-01T04:06:50.488Z,99.90
2017-09-01T04:09:17.948Z,99.90
2017-09-01T04:11:45.415Z,99.90
2017-09-01T04:14:12.919Z,99.90
2017-09-01T04:16:41.151Z,99.90
2017-09-01T04:19:08.616Z,99.90
2017-09-01T04:21:36.161Z,99.90
2017-09-01T04:24:03.708Z,99.90
2017-09-01T04:26:31.217Z,99.90
2017-09-01T04:28:58.807Z,99.90
2017-09-01T04:31:26.334Z,99.90
2017-09-01T04:33:53.804Z,99.90
2017-09-01T04:36:21.473Z,99.90
2017-09-01T04:38:48.960Z,99.90
2017-09-01T04:41:17.319Z,99.90
2017-09-01T04:43:44.871Z,99.90
2017-09-01T04:46:12.336Z,99.90
2017-09-01T04:48:39.807Z,99.90
2017-09-01T04:51:07.350Z,99.90
2017-09-01T04:53:35.035Z,99.90
2017-09-01T04:56:02.495Z,99.90
2017-09-01T04:58:30.023Z,99.90
2017-09-01T05:00:57.772Z,99.90
2017-09-01T05:03:25.319Z,99.90
2017-09-01T05:05:52.788Z,99.90
2017-09-01T05:08:20.400Z,99.90
2017-09-01T05:10:47.868Z,99.90
2017-09-01T05:13:15.391Z,99.90
2017-09-01T05:15:43.032Z,99.90
2017-09-01T05:18:10.501Z,99.90
2017-09-01T05:20:38.648Z,99.90
2017-09-01T05:23:06.275Z,99.90
2017-09-01T05:25:33.748Z,99.90
2017-09-01T05:28:01.269Z,99.90
2017-09-01T05:30:29.016Z,99.90
2017-09-01T05:32:56.562Z,99.90
2017-09-01T05:35:24.028Z,99.90
2017-09-01T05:37:51.517Z,99.90
2017-09-01T05:40:18.981Z,99.90
2017-09-01T05:42:46.439Z,99.90
2017-09-01T05:45:13.959Z,99.90
2017-09-01T05:47:41.423Z,99.90
2017-09-01T05:50:08.953Z,99.90
2017-09-01T05:52:36.592Z,99.90
2017-09-01T05:55:04.059Z,99.90
2017-09-01T05:57:31.519Z,99.90
2017-09-01T05:59:58.996Z,99.90
2017-09-01T06:02:26.465Z,99.90
2017-09-01T06:04:53.945Z,99.90
2017-09-01T06:07:21.452Z,99.90
2017-09-01T06:09:48.911Z,99.90
2017-09-01T06:12:16.536Z,99.90
2017-09-01T06:14:44.055Z,99.90
2017-09-01T06:17:11.513Z,99.90
2017-09-01T06:19:38.984Z,99.90
2017-09-01T06:22:06.459Z,99.90
2017-09-01T06:24:33.948Z,99.90
2017-09-01T06:27:01.489Z,99.70
2017-09-01T06:29:29.028Z,99.50
2017-09-01T06:31:56.540Z,99.00
2017-09-01T06:34:23.992Z,98.60
2017-09-01T06:36:51.447Z,98.90
2017-09-01T06:39:18.932Z,99.00
2017-09-01T06:41:46.386Z,98.80
2017-09-01T06:44:13.848Z,98.40
2017-09-01T06:46:41.343Z,98.70
2017-09-01T06:49:08.872Z,98.20
2017-09-01T06:51:36.408Z,97.80
2017-09-01T06:54:03.908Z,97.80
2017-09-01T06:56:31.402Z,97.40
2017-09-01T06:58:58.865Z,97.20
2017-09-01T07:01:26.583Z,97.00
2017-09-01T07:03:54.124Z,96.70
2017-09-01T07:06:21.589Z,96.50
2017-09-01T07:08:49.107Z,96.50
2017-09-01T07:11:16.657Z,95.70
2017-09-01T07:13:44.124Z,95.30
2017-09-01T07:16:11.645Z,95.10
2017-09-01T07:18:39.192Z,94.90
2017-09-01T07:21:06.651Z,95.10
2017-09-01T07:23:34.176Z,95.00
2017-09-01T07:26:01.720Z,94.80
2017-09-01T07:28:29.255Z,94.80
2017-09-01T07:30:56.808Z,94.50
2017-09-01T07:33:24.347Z,94.80
2017-09-01T07:35:51.888Z,94.80
2017-09-01T07:38:19.428Z,93.90
2017-09-01T07:40:46.896Z,94.00
2017-09-01T07:43:14.379Z,93.90
2017-09-01T07:45:41.860Z,94.00
2017-09-01T07:48:10.123Z,93.60
2017-09-01T07:50:37.622Z,93.60
2017-09-01T07:53:05.108Z,93.70
2017-09-01T07:55:33.333Z,94.10
2017-09-01T07:58:00.904Z,94.00
2017-09-01T08:00:28.445Z,93.90
2017-09-01T08:02:55.987Z,93.90
2017-09-01T08:05:23.480Z,93.30
2017-09-01T08:07:50.981Z,93.20
2017-09-01T08:10:18.519Z,92.40
2017-09-01T08:12:46.044Z,92.50
2017-09-01T08:15:13.612Z,92.90
2017-09-01T08:17:41.072Z,92.50
2017-09-01T08:20:08.588Z,92.30
2017-09-01T08:22:36.140Z,92.70
2017-09-01T08:25:03.601Z,93.40
2017-09-01T08:27:31.248Z,93.60
2017-09-01T08:29:58.764Z,93.10
2017-09-01T08:32:26.303Z,93.00
2017-09-01T08:34:54.053Z,93.30
2017-09-01T08:37:21.516Z,93.30
2017-09-01T08:39:49.039Z,92.90
2017-09-01T08:42:16.545Z,92.40
2017-09-01T08:44:44.008Z,91.90
2017-09-01T08:47:11.572Z,91.50
2017-09-01T08:49:39.116Z,90.40
2017-09-01T08:52:06.652Z,90.10
2017-09-01T08:54:34.112Z,88.90
2017-09-01T08:57:01.648Z,90.10
2017-09-01T08:59:29.189Z,90.70
2017-09-01T09:01:56.734Z,87.70
2017-09-01T09:04:24.472Z,88.00
2017-09-01T09:06:52.068Z,88.40
2017-09-01T09:09:19.564Z,85.20
2017-09-01T09:11:47.048Z,84.50
2017-09-01T09:14:14.503Z,85.20
2017-09-01T09:16:41.996Z,82.30
2017-09-01T09:19:09.742Z,80.40
2017-09-01T09:21:37.285Z,79.10
2017-09-01T09:24:04.828Z,78.80
2017-09-01T09:26:32.312Z,78.50
2017-09-01T09:28:59.764Z,79.20
2017-09-01T09:31:27.253Z,78.00
2017-09-01T09:33:54.791Z,77.80
2017-09-01T09:36:22.255Z,76.10
2017-09-01T09:38:49.879Z,76.40
2017-09-01T09:41:17.429Z,75.90
2017-09-01T09:43:44.887Z,75.80
2017-09-01T09:46:12.411Z,73.50
2017-09-01T09:48:39.876Z,74.70
2017-09-01T09:51:07.343Z,72.80
2017-09-01T09:53:34.927Z,73.10
2017-09-01T09:56:02.480Z,74.50
2017-09-01T09:58:30.027Z,73.90
2017-09-01T10:00:57.535Z,75.20
2017-09-01T10:03:24.995Z,76.10
2017-09-01T10:05:52.455Z,77.30
2017-09-01T10:08:19.945Z,78.60
2017-09-01T10:10:47.452Z,80.20
2017-09-01T10:13:15.002Z,80.70
2017-09-01T10:15:43.439Z,82.70
2017-09-01T10:18:10.901Z,82.60
2017-09-01T10:20:38.422Z,83.40
2017-09-01T10:23:05.924Z,86.00
2017-09-01T10:25:33.388Z,89.50
2017-09-01T10:28:00.847Z,91.10
2017-09-01T10:30:28.396Z,91.80
2017-09-01T10:32:55.892Z,92.80
2017-09-01T10:35:23.349Z,94.50
2017-09-01T10:37:50.819Z,95.00
2017-09-01T10:40:18.331Z,95.10
2017-09-01T10:42:45.916Z,95.90
2017-09-01T10:45:13.432Z,96.40
2017-09-01T10:50:53.269Z,97.30
2017-09-01T10:53:32.827Z,97.40
2017-09-01T10:56:12.416Z,97.60
2017-09-01T10:58:39.920Z,98.30
2017-09-01T11:01:07.404Z,98.50
2017-09-01T11:03:34.939Z,98.30
2017-09-01T11:06:02.480Z,98.10
2017-09-01T11:08:30.029Z,97.60
2017-09-01T11:10:57.572Z,97.40
2017-09-01T11:13:25.031Z,97.20
2017-09-01T11:15:52.564Z,96.80
2017-09-01T11:18:20.036Z,96.80
2017-09-01T11:20:53.291Z,96.90
2017-09-01T11:23:26.505Z,95.60
2017-09-01T11:25:53.992Z,95.50
2017-09-01T11:28:21.448Z,94.90
2017-09-01T11:30:49.179Z,94.80
2017-09-01T11:33:16.639Z,94.10
2017-09-01T11:35:44.172Z,93.70
2017-09-01T11:38:11.720Z,93.20
2017-09-01T11:40:39.256Z,92.40
2017-09-01T11:43:06.808Z,91.60
2017-09-01T11:45:34.299Z,91.50
2017-09-01T11:48:01.780Z,91.20
2017-09-01T11:50:29.236Z,91.40
2017-09-01T11:52:56.743Z,89.40
2017-09-01T11:55:24.260Z,86.00
2017-09-01T11:57:51.796Z,87.40
2017-09-01T12:00:19.436Z,89.00
2017-09-01T12:02:46.992Z,79.20
2017-09-01T12:05:14.441Z,70.70
2017-09-01T12:07:41.967Z,58.50
2017-09-01T12:10:09.507Z,58.80
2017-09-01T12:12:37.058Z,54.10
2017-09-01T12:15:04.552Z,48.50
2017-09-01T12:17:32.142Z,44.20
2017-09-01T12:19:59.688Z,39.80
2017-09-01T12:22:27.339Z,40.90
2017-09-01T12:24:54.880Z,39.70
2017-09-01T12:27:23.101Z,37.30
2017-09-01T12:29:50.775Z,36.50
2017-09-01T12:32:18.323Z,34.60
2017-09-01T12:34:45.781Z,37.40
2017-09-01T12:37:13.495Z,37.10
2017-09-01T12:39:41.060Z,39.50
2017-09-01T12:42:08.600Z,42.90
2017-09-01T12:44:36.080Z,45.10
2017-09-01T12:47:03.524Z,43.20
2017-09-01T12:49:30.978Z,45.90
2017-09-01T12:51:58.466Z,45.60
2017-09-01T12:54:26.947Z,47.70
2017-09-01T12:56:54.491Z,52.00
2017-09-01T12:59:21.943Z,54.60
2017-09-01T13:01:49.473Z,56.40
2017-09-01T13:04:17.019Z,57.80
2017-09-01T13:06:44.485Z,57.70
2017-09-01T13:09:11.999Z,56.10
2017-09-01T13:11:39.465Z,57.00
2017-09-01T13:14:06.924Z,55.90
2017-09-01T13:16:34.400Z,59.30
2017-09-01T13:19:01.847Z,60.10
2017-09-01T13:21:29.308Z,58.40
2017-09-01T13:23:56.851Z,59.80
2017-09-01T13:26:24.312Z,57.10
2017-09-01T13:28:52.651Z,59.90
2017-09-01T13:31:20.203Z,59.70
2017-09-01T13:33:47.668Z,58.40
2017-09-01T13:36:15.116Z,59.00
2017-09-01T13:38:42.610Z,60.30
2017-09-01T13:41:10.169Z,62.70
2017-09-01T13:43:37.711Z,61.10
2017-09-01T13:46:05.260Z,60.50
2017-09-01T13:48:32.796Z,59.40
2017-09-01T13:51:00.341Z,58.90
2017-09-01T13:53:27.843Z,59.40
2017-09-01T13:55:55.296Z,58.30
2017-09-01T13:58:22.834Z,57.80
2017-09-01T14:00:50.388Z,57.20
2017-09-01T14:03:17.932Z,55.50
2017-09-01T14:05:45.387Z,60.10
2017-09-01T14:08:13.013Z,65.60
2017-09-01T14:10:40.472Z,68.40
2017-09-01T14:13:07.927Z,70.00
2017-09-01T14:15:35.424Z,71.30
2017-09-01T14:18:02.884Z,71.10
2017-09-01T14:20:30.424Z,69.30
2017-09-01T14:22:57.962Z,64.50
2017-09-01T14:25:25.429Z,59.70
2017-09-01T14:27:52.956Z,60.30
2017-09-01T14:30:20.502Z,59.10
2017-09-01T14:32:47.956Z,60.20
2017-09-01T14:35:15.484Z,57.70
2017-09-01T14:37:43.096Z,55.60
2017-09-01T14:40:10.567Z,53.40
2017-09-01T14:42:38.113Z,50.90
2017-09-01T14:45:05.839Z,51.00
2017-09-01T14:47:33.296Z,50.80
2017-09-01T14:50:00.747Z,51.70
2017-09-01T14:52:28.483Z,54.10
2017-09-01T14:54:56.017Z,56.50
2017-09-01T14:57:23.474Z,58.10
2017-09-01T14:59:51.000Z,59.60
2017-09-01T15:02:18.539Z,61.00
2017-09-01T15:04:46.023Z,63.00
2017-09-01T15:07:13.528Z,64.20
2017-09-01T15:09:41.071Z,65.10
2017-09-01T15:12:08.594Z,66.00
2017-09-01T15:14:36.055Z,66.40
2017-09-01T15:17:03.596Z,67.00
2017-09-01T15:19:31.141Z,68.20
2017-09-01T15:21:58.688Z,67.70
2017-09-01T15:24:26.144Z,68.30
2017-09-01T15:26:53.638Z,68.40
2017-09-01T15:29:21.384Z,69.80
2017-09-01T15:31:48.863Z,71.40
2017-09-01T15:34:16.401Z,73.60
2017-09-01T15:36:43.961Z,74.70
2017-09-01T15:39:11.416Z,76.30
2017-09-01T15:41:39.044Z,77.00
2017-09-01T15:44:06.491Z,78.50
2017-09-01T15:46:33.955Z,78.10
2017-09-01T15:49:01.440Z,78.30
2017-09-01T15:51:28.960Z,77.50
2017-09-01T15:53:56.417Z,78.60
2017-09-01T15:56:24.057Z,76.60
2017-09-01T15:58:51.599Z,75.50
2017-09-01T16:01:19.060Z,74.40
2017-09-01T16:03:46.593Z,70.80
2017-09-01T16:06:14.144Z,69.80
2017-09-01T16:08:41.675Z,71.50
2017-09-01T16:11:09.324Z,74.50
2017-09-01T16:13:36.788Z,73.80
2017-09-01T16:16:04.248Z,72.50
2017-09-01T16:18:31.753Z,73.70
2017-09-01T16:20:59.309Z,72.90
2017-09-01T16:23:26.764Z,72.60
2017-09-01T16:25:54.303Z,72.60
2017-09-01T16:28:21.839Z,73.90
2017-09-01T16:30:49.291Z,73.80
2017-09-01T16:33:16.792Z,74.70
2017-09-01T16:35:44.243Z,72.90
2017-09-01T16:38:11.708Z,75.10
2017-09-01T16:40:40.408Z,76.20
2017-09-01T16:43:07.929Z,77.40
2017-09-01T16:45:35.463Z,76.90
2017-09-01T16:48:03.015Z,76.10
2017-09-01T16:50:31.274Z,75.80
2017-09-01T16:52:59.632Z,75.70
2017-09-01T16:55:27.179Z,75.70
2017-09-01T16:57:55.430Z,76.20
2017-09-01T17:00:23.171Z,76.10
2017-09-01T17:02:50.723Z,76.90
2017-09-01T17:05:18.276Z,77.20
2017-09-01T17:07:45.813Z,77.10
2017-09-01T17:10:13.352Z,75.80
2017-09-01T17:12:40.895Z,76.90
2017-09-01T17:15:08.415Z,77.20
2017-09-01T17:17:35.904Z,77.20
2017-09-01T17:20:03.433Z,77.50
2017-09-01T17:22:31.253Z,78.70
2017-09-01T17:24:58.753Z,78.90
2017-09-01T17:27:26.207Z,79.50
2017-09-01T17:29:53.820Z,79.50
2017-09-01T17:32:21.279Z,80.10
2017-09-01T17:34:48.732Z,80.10
2017-09-01T17:37:16.478Z,79.50
2017-09-01T17:39:43.936Z,80.30
2017-09-01T17:42:11.392Z,80.70
2017-09-01T17:44:38.868Z,80.80
2017-09-01T17:47:09.926Z,80.50
2017-09-01T17:49:37.371Z,81.00
2017-09-01T17:52:04.909Z,81.40
2017-09-01T17:54:32.464Z,81.70
2017-09-01T17:57:07.548Z,81.30
2017-09-01T17:59:35.420Z,82.30
2017-09-01T18:02:03.000Z,83.00
2017-09-01T18:04:30.502Z,82.90
2017-09-01T18:06:57.996Z,84.30
2017-09-01T18:09:25.540Z,84.90
2017-09-01T18:11:53.041Z,85.30
2017-09-01T18:14:20.521Z,84.40
2017-09-01T18:16:48.107Z,85.40
2017-09-01T18:19:15.856Z,85.50
2017-09-01T18:21:43.392Z,85.30
2017-09-01T18:24:10.851Z,86.20
2017-09-01T18:26:38.409Z,86.30
2017-09-01T18:29:05.884Z,85.80
2017-09-01T18:31:33.572Z,86.00
2017-09-01T18:34:01.108Z,87.40
2017-09-01T18:36:29.349Z,86.90
2017-09-01T18:38:56.839Z,86.70
2017-09-01T18:41:24.292Z,87.70
2017-09-01T18:43:51.752Z,87.70
2017-09-01T18:46:19.452Z,89.80
2017-09-01T18:48:46.988Z,90.00
2017-09-01T18:51:14.529Z,89.50
2017-09-01T18:53:42.023Z,90.00
2017-09-01T18:56:09.552Z,90.70
2017-09-01T18:58:37.061Z,90.20
2017-09-01T19:01:04.720Z,90.60
2017-09-01T19:03:32.252Z,91.00
2017-09-01T19:05:59.716Z,91.20
2017-09-01T19:08:27.201Z,91.40
2017-09-01T19:10:54.711Z,91.80
2017-09-01T19:13:22.257Z,91.80
2017-09-01T19:15:50.008Z,91.30
2017-09-01T19:18:17.527Z,91.90
2017-09-01T19:20:45.756Z,91.60
2017-09-01T19:23:13.327Z,91.60
2017-09-01T19:25:40.837Z,92.00
2017-09-01T19:28:08.319Z,92.20
2017-09-01T19:30:35.882Z,92.40
2017-09-01T19:33:03.380Z,92.30
2017-09-01T19:35:30.940Z,92.60
2017-09-01T19:37:58.480Z,92.40
2017-09-01T19:40:26.029Z,92.40
2017-09-01T19:42:53.572Z,92.60
2017-09-01T19:45:21.080Z,92.80
2017-09-01T19:47:48.560Z,92.70
2017-09-01T19:50:16.060Z,92.50
2017-09-01T19:52:43.524Z,92.70
2017-09-01T19:55:11.031Z,92.90
2017-09-01T19:57:38.491Z,93.40
2017-09-01T20:00:06.003Z,93.80
2017-09-01T20:02:33.639Z,93.30
2017-09-01T20:05:01.103Z,93.30
2017-09-01T20:07:28.573Z,93.30
2017-09-01T20:09:56.219Z,93.30
2017-09-01T20:12:23.692Z,93.40
2017-09-01T20:14:51.971Z,92.80
2017-09-01T20:17:19.484Z,93.00
2017-09-01T20:19:47.736Z,93.30
2017-09-01T20:22:15.200Z,93.30
2017-09-01T20:24:42.748Z,92.90
2017-09-01T20:27:10.257Z,92.90
2017-09-01T20:29:37.716Z,93.50
2017-09-01T20:32:05.290Z,93.90
2017-09-01T20:34:32.797Z,93.40
2017-09-01T20:37:01.020Z,93.50
2017-09-01T20:39:28.688Z,93.50
2017-09-01T20:41:56.231Z,93.20
2017-09-01T20:44:23.788Z,93.70
2017-09-01T20:46:51.263Z,93.80
2017-09-01T20:49:18.763Z,94.20
2017-09-01T20:51:46.311Z,94.20
2017-09-01T20:54:13.848Z,94.10
2017-09-01T20:56:41.399Z,94.40
2017-09-01T20:59:08.883Z,94.70
2017-09-01T21:01:36.357Z,94.70
2017-09-01T21:04:03.924Z,94.80
2017-09-01T21:06:31.380Z,94.50
2017-09-01T21:08:58.907Z,94.50
2017-09-01T21:11:26.452Z,94.20
2017-09-01T21:13:53.954Z,93.90
2017-09-01T21:16:21.432Z,93.80
2017-09-01T21:18:48.980Z,93.80
2017-09-01T21:21:16.436Z,93.80
2017-09-01T21:23:43.960Z,93.30
2017-09-01T21:26:11.419Z,93.30
2017-09-01T21:28:38.885Z,93.50
2017-09-01T21:31:06.408Z,93.10
2017-09-01T21:33:33.931Z,93.00
2017-09-01T21:36:01.403Z,93.00
2017-09-01T21:38:29.956Z,92.70
2017-09-01T21:40:57.448Z,92.70
2017-09-01T21:43:24.928Z,92.60
2017-09-01T21:45:53.184Z,92.50
2017-09-01T21:48:20.741Z,92.50
2017-09-01T21:50:48.199Z,92.90
2017-09-01T21:53:15.716Z,93.20
2017-09-01T21:55:43.221Z,92.50
2017-09-01T21:58:11.511Z,93.00
2017-09-01T22:00:38.984Z,93.40
2017-09-01T22:03:06.505Z,93.60
2017-09-01T22:05:33.968Z,94.00
2017-09-01T22:08:01.486Z,94.40
2017-09-01T22:10:29.030Z,93.80
2017-09-01T22:12:56.568Z,93.90
2017-09-01T22:15:24.220Z,94.60
2017-09-01T22:17:51.680Z,94.10
2017-09-01T22:20:19.900Z,94.80
2017-09-01T22:22:47.469Z,94.80
2017-09-01T22:25:14.920Z,94.80
2017-09-01T22:27:42.385Z,95.00
2017-09-01T22:30:10.091Z,94.60
2017-09-01T22:32:37.555Z,95.00
2017-09-01T22:35:05.077Z,95.20
2017-09-01T22:37:32.623Z,95.00
2017-09-01T22:40:00.884Z,94.10
2017-09-01T22:42:28.430Z,94.10
2017-09-01T22:44:56.230Z,94.10
2017-09-01T22:47:23.724Z,94.50
2017-09-01T22:49:51.183Z,94.50
2017-09-01T22:52:18.677Z,94.70
2017-09-01T22:54:46.133Z,94.90
2017-09-01T22:57:13.591Z,94.90
2017-09-01T22:59:41.960Z,95.10
2017-09-01T23:02:09.592Z,95.10
2017-09-01T23:04:37.132Z,94.90
2017-09-01T23:07:04.595Z,94.40
2017-09-01T23:09:32.124Z,94.70
2017-09-01T23:11:59.769Z,94.70
2017-09-01T23:14:27.307Z,94.20
2017-09-01T23:16:54.852Z,94.50
2017-09-01T23:19:22.599Z,94.80
2017-09-01T23:21:50.148Z,94.40
2017-09-01T23:24:17.684Z,94.90
2017-09-01T23:26:45.184Z,94.70
2017-09-01T23:29:12.678Z,94.60
2017-09-01T23:31:40.320Z,94.80
2017-09-01T23:34:07.836Z,95.20
2017-09-01T23:36:35.308Z,95.40
2017-09-01T23:39:02.763Z,95.60
2017-09-01T23:41:30.249Z,95.80
2017-09-01T23:43:57.736Z,95.70
2017-09-01T23:46:25.279Z,95.50
2017-09-01T23:48:52.820Z,95.50
2017-09-01T23:51:20.363Z,95.00
2017-09-01T23:53:47.900Z,95.00
2017-09-01T23:56:15.403Z,95.30
2017-09-01T23:58:42.888Z,94.80
